sensor_id;sensor_type;location;lat;lon;timestamp;pressure;altitude;pressure_sealevel;temperature;humidity
65718;BME280;52445;52.466;-1.016;2023-03-13T00:00:57;97799.31;;;11.64;82.95
65718;BME280;52445;52.466;-1.016;2023-03-13T00:03:25;97797.56;;;11.64;83.03
65718;BME280;52445;52.466;-1.016;2023-03-13T00:05:59;97797.50;;;11.66;82.94
65718;BME280;52445;52.466;-1.016;2023-03-13T00:08:29;97804.56;;;11.62;83.62
65718;BME280;52445;52.466;-1.016;2023-03-13T00:10:56;97794.97;;;11.64;82.97
65718;BME280;52445;52.466;-1.016;2023-03-13T00:13:23;97785.47;;;11.65;82.87
65718;BME280;52445;52.466;-1.016;2023-03-13T00:15:58;97791.34;;;11.68;82.49
65718;BME280;52445;52.466;-1.016;2023-03-13T00:18:25;97773.97;;;11.70;82.32
65718;BME280;52445;52.466;-1.016;2023-03-13T00:21:08;97772.28;;;11.69;82.27
65718;BME280;52445;52.466;-1.016;2023-03-13T00:23:36;97784.19;;;11.74;83.00
65718;BME280;52445;52.466;-1.016;2023-03-13T00:26:07;97776.34;;;11.75;81.90
65718;BME280;52445;52.466;-1.016;2023-03-13T00:28:35;97771.03;;;11.78;81.98
65718;BME280;52445;52.466;-1.016;2023-03-13T00:33:41;97753.50;;;11.83;81.74
65718;BME280;52445;52.466;-1.016;2023-03-13T00:36:10;97756.88;;;11.86;81.19
65718;BME280;52445;52.466;-1.016;2023-03-13T00:38:38;97740.34;;;11.88;82.41
65718;BME280;52445;52.466;-1.016;2023-03-13T00:41:07;97717.78;;;11.90;82.12
65718;BME280;52445;52.466;-1.016;2023-03-13T00:43:34;97723.78;;;11.91;81.16
65718;BME280;52445;52.466;-1.016;2023-03-13T00:46:01;97704.75;;;11.92;81.95
65718;BME280;52445;52.466;-1.016;2023-03-13T00:48:29;97705.63;;;11.91;80.92
65718;BME280;52445;52.466;-1.016;2023-03-13T00:50:55;97715.25;;;11.89;81.58
65718;BME280;52445;52.466;-1.016;2023-03-13T00:53:22;97720.44;;;11.89;81.72
65718;BME280;52445;52.466;-1.016;2023-03-13T00:55:52;97719.44;;;11.91;81.61
65718;BME280;52445;52.466;-1.016;2023-03-13T00:58:19;97733.28;;;11.92;81.57
65718;BME280;52445;52.466;-1.016;2023-03-13T01:00:45;97730.50;;;11.95;80.87
65718;BME280;52445;52.466;-1.016;2023-03-13T01:03:12;97729.75;;;11.93;81.57
65718;BME280;52445;52.466;-1.016;2023-03-13T01:05:39;97721.00;;;11.95;81.46
65718;BME280;52445;52.466;-1.016;2023-03-13T01:08:06;97719.31;;;11.94;80.66
65718;BME280;52445;52.466;-1.016;2023-03-13T01:10:33;97714.13;;;11.94;81.51
65718;BME280;52445;52.466;-1.016;2023-03-13T01:12:59;97711.59;;;11.93;81.28
65718;BME280;52445;52.466;-1.016;2023-03-13T01:15:26;97709.75;;;11.95;81.67
65718;BME280;52445;52.466;-1.016;2023-03-13T01:17:53;97722.03;;;11.91;80.85
65718;BME280;52445;52.466;-1.016;2023-03-13T01:20:19;97727.03;;;11.96;81.98
65718;BME280;52445;52.466;-1.016;2023-03-13T01:22:46;97715.25;;;11.89;82.49
65718;BME280;52445;52.466;-1.016;2023-03-13T01:25:12;97703.16;;;11.88;81.75
65718;BME280;52445;52.466;-1.016;2023-03-13T01:27:39;97696.03;;;11.93;81.08
65718;BME280;52445;52.466;-1.016;2023-03-13T01:30:06;97698.56;;;11.94;80.97
65718;BME280;52445;52.466;-1.016;2023-03-13T01:32:33;97693.50;;;11.91;81.38
65718;BME280;52445;52.466;-1.016;2023-03-13T01:34:59;97687.47;;;11.91;82.54
65718;BME280;52445;52.466;-1.016;2023-03-13T01:37:26;97677.09;;;11.91;81.52
65718;BME280;52445;52.466;-1.016;2023-03-13T01:39:52;97678.81;;;11.92;82.09
65718;BME280;52445;52.466;-1.016;2023-03-13T01:42:19;97669.38;;;11.89;82.53
65718;BME280;52445;52.466;-1.016;2023-03-13T01:47:24;97640.78;;;11.91;82.90
65718;BME280;52445;52.466;-1.016;2023-03-13T01:49:51;97625.28;;;11.89;81.89
65718;BME280;52445;52.466;-1.016;2023-03-13T01:52:23;97624.41;;;11.90;81.83
65718;BME280;52445;52.466;-1.016;2023-03-13T01:57:30;97620.03;;;11.91;82.51
65718;BME280;52445;52.466;-1.016;2023-03-13T02:02:38;97624.41;;;11.90;83.17
65718;BME280;52445;52.466;-1.016;2023-03-13T02:05:06;97617.94;;;11.80;82.63
65718;BME280;52445;52.466;-1.016;2023-03-13T02:10:12;97600.97;;;11.92;82.81
65718;BME280;52445;52.466;-1.016;2023-03-13T02:12:40;97591.44;;;11.92;81.72
65718;BME280;52445;52.466;-1.016;2023-03-13T02:17:44;97584.03;;;11.85;83.48
65718;BME280;52445;52.466;-1.016;2023-03-13T02:20:14;97573.66;;;11.85;83.32
65718;BME280;52445;52.466;-1.016;2023-03-13T02:28:03;97556.25;;;11.87;82.27
65718;BME280;52445;52.466;-1.016;2023-03-13T02:30:30;97546.09;;;11.82;82.73
65718;BME280;52445;52.466;-1.016;2023-03-13T02:32:59;97543.13;;;11.90;82.02
65718;BME280;52445;52.466;-1.016;2023-03-13T02:35:26;97543.91;;;11.92;83.30
65718;BME280;52445;52.466;-1.016;2023-03-13T02:37:56;97539.88;;;11.86;82.34
65718;BME280;52445;52.466;-1.016;2023-03-13T02:40:28;97512.78;;;11.92;82.01
65718;BME280;52445;52.466;-1.016;2023-03-13T02:42:55;97520.41;;;11.95;82.66
65718;BME280;52445;52.466;-1.016;2023-03-13T02:45:24;97518.81;;;11.92;81.86
65718;BME280;52445;52.466;-1.016;2023-03-13T02:47:50;97520.56;;;11.92;81.70
65718;BME280;52445;52.466;-1.016;2023-03-13T02:50:17;97502.50;;;11.90;82.24
65718;BME280;52445;52.466;-1.016;2023-03-13T02:52:48;97492.19;;;11.89;82.76
65718;BME280;52445;52.466;-1.016;2023-03-13T02:55:23;97482.69;;;11.88;82.01
65718;BME280;52445;52.466;-1.016;2023-03-13T02:57:51;97478.28;;;11.90;82.19
65718;BME280;52445;52.466;-1.016;2023-03-13T03:00:18;97472.19;;;11.91;81.86
65718;BME280;52445;52.466;-1.016;2023-03-13T03:02:45;97469.75;;;11.88;82.81
65718;BME280;52445;52.466;-1.016;2023-03-13T03:05:12;97476.38;;;11.93;82.63
65718;BME280;52445;52.466;-1.016;2023-03-13T03:07:38;97449.63;;;11.93;82.76
65718;BME280;52445;52.466;-1.016;2023-03-13T03:10:05;97457.41;;;11.93;82.39
65718;BME280;52445;52.466;-1.016;2023-03-13T03:12:32;97466.09;;;11.92;82.71
65718;BME280;52445;52.466;-1.016;2023-03-13T03:14:59;97437.66;;;11.90;81.71
65718;BME280;52445;52.466;-1.016;2023-03-13T03:17:25;97452.06;;;11.96;81.99
65718;BME280;52445;52.466;-1.016;2023-03-13T03:19:52;97451.13;;;11.97;82.55
65718;BME280;52445;52.466;-1.016;2023-03-13T03:22:18;97460.59;;;11.98;81.70
65718;BME280;52445;52.466;-1.016;2023-03-13T03:24:45;97457.06;;;11.99;82.70
65718;BME280;52445;52.466;-1.016;2023-03-13T03:27:12;97452.81;;;11.98;82.15
65718;BME280;52445;52.466;-1.016;2023-03-13T03:29:39;97463.09;;;12.00;81.65
65718;BME280;52445;52.466;-1.016;2023-03-13T03:32:05;97458.06;;;11.96;81.91
65718;BME280;52445;52.466;-1.016;2023-03-13T03:34:32;97464.84;;;11.99;82.80
65718;BME280;52445;52.466;-1.016;2023-03-13T03:36:59;97453.03;;;11.93;82.50
65718;BME280;52445;52.466;-1.016;2023-03-13T03:39:25;97455.41;;;11.98;82.77
65718;BME280;52445;52.466;-1.016;2023-03-13T03:41:52;97451.28;;;11.94;81.77
65718;BME280;52445;52.466;-1.016;2023-03-13T03:44:18;97452.81;;;11.98;83.13
65718;BME280;52445;52.466;-1.016;2023-03-13T03:46:45;97440.00;;;11.95;81.98
65718;BME280;52445;52.466;-1.016;2023-03-13T03:49:11;97434.81;;;11.95;82.46
65718;BME280;52445;52.466;-1.016;2023-03-13T03:51:38;97433.91;;;11.96;82.38
65718;BME280;52445;52.466;-1.016;2023-03-13T03:54:05;97433.81;;;11.98;83.01
65718;BME280;52445;52.466;-1.016;2023-03-13T03:56:31;97431.22;;;11.98;82.49
65718;BME280;52445;52.466;-1.016;2023-03-13T03:58:58;97417.25;;;12.00;81.84
65718;BME280;52445;52.466;-1.016;2023-03-13T04:01:24;97434.50;;;12.01;82.30
65718;BME280;52445;52.466;-1.016;2023-03-13T04:03:51;97426.88;;;11.98;82.11
65718;BME280;52445;52.466;-1.016;2023-03-13T04:06:17;97415.56;;;11.99;82.20
65718;BME280;52445;52.466;-1.016;2023-03-13T04:08:44;97403.38;;;12.01;82.05
65718;BME280;52445;52.466;-1.016;2023-03-13T04:11:11;97387.97;;;11.98;83.00
65718;BME280;52445;52.466;-1.016;2023-03-13T04:13:37;97403.53;;;11.98;81.77
65718;BME280;52445;52.466;-1.016;2023-03-13T04:16:06;97399.25;;;11.97;82.65
65718;BME280;52445;52.466;-1.016;2023-03-13T04:18:33;97401.25;;;11.92;81.55
65718;BME280;52445;52.466;-1.016;2023-03-13T04:21:01;97401.16;;;11.93;82.54
65718;BME280;52445;52.466;-1.016;2023-03-13T04:23:28;97395.16;;;11.93;81.43
65718;BME280;52445;52.466;-1.016;2023-03-13T04:25:55;97408.03;;;11.94;81.51
65718;BME280;52445;52.466;-1.016;2023-03-13T04:28:22;97402.09;;;11.92;81.15
65718;BME280;52445;52.466;-1.016;2023-03-13T04:30:48;97390.09;;;11.90;82.64
65718;BME280;52445;52.466;-1.016;2023-03-13T04:33:15;97374.69;;;11.87;81.40
65718;BME280;52445;52.466;-1.016;2023-03-13T04:35:42;97392.56;;;11.75;82.47
65718;BME280;52445;52.466;-1.016;2023-03-13T04:38:10;97382.88;;;11.79;82.07
65718;BME280;52445;52.466;-1.016;2023-03-13T04:40:36;97357.19;;;11.74;81.63
65718;BME280;52445;52.466;-1.016;2023-03-13T04:43:03;97358.25;;;11.70;82.32
65718;BME280;52445;52.466;-1.016;2023-03-13T04:45:29;97337.66;;;11.67;81.09
65718;BME280;52445;52.466;-1.016;2023-03-13T04:47:56;97336.16;;;11.63;82.24
65718;BME280;52445;52.466;-1.016;2023-03-13T04:50:22;97339.50;;;11.65;80.53
65718;BME280;52445;52.466;-1.016;2023-03-13T04:52:49;97340.47;;;11.62;81.79
65718;BME280;52445;52.466;-1.016;2023-03-13T04:55:16;97338.72;;;11.63;80.65
65718;BME280;52445;52.466;-1.016;2023-03-13T04:57:42;97348.19;;;11.64;80.52
65718;BME280;52445;52.466;-1.016;2023-03-13T05:00:10;97344.44;;;11.69;81.51
65718;BME280;52445;52.466;-1.016;2023-03-13T05:02:36;97344.38;;;11.71;81.40
65718;BME280;52445;52.466;-1.016;2023-03-13T05:05:03;97332.19;;;11.73;80.27
65718;BME280;52445;52.466;-1.016;2023-03-13T05:07:30;97332.31;;;11.70;81.23
65718;BME280;52445;52.466;-1.016;2023-03-13T05:09:56;97330.31;;;11.75;79.89
65718;BME280;52445;52.466;-1.016;2023-03-13T05:12:24;97340.53;;;11.78;80.96
65718;BME280;52445;52.466;-1.016;2023-03-13T05:14:50;97339.88;;;11.75;80.22
65718;BME280;52445;52.466;-1.016;2023-03-13T05:17:17;97332.31;;;11.70;80.71
65718;BME280;52445;52.466;-1.016;2023-03-13T05:19:44;97335.00;;;11.68;80.49
65718;BME280;52445;52.466;-1.016;2023-03-13T05:22:11;97337.59;;;11.68;80.65
65718;BME280;52445;52.466;-1.016;2023-03-13T05:24:37;97328.97;;;11.68;81.33
65718;BME280;52445;52.466;-1.016;2023-03-13T05:27:07;97344.69;;;11.65;80.82
65718;BME280;52445;52.466;-1.016;2023-03-13T05:29:34;97336.16;;;11.63;80.84
65718;BME280;52445;52.466;-1.016;2023-03-13T05:32:00;97322.50;;;11.59;81.20
65718;BME280;52445;52.466;-1.016;2023-03-13T05:34:27;97320.66;;;11.61;80.09
65718;BME280;52445;52.466;-1.016;2023-03-13T05:36:53;97312.50;;;11.51;79.89
65718;BME280;52445;52.466;-1.016;2023-03-13T05:39:20;97304.75;;;11.51;80.74
65718;BME280;52445;52.466;-1.016;2023-03-13T05:41:46;97303.81;;;11.52;79.69
65718;BME280;52445;52.466;-1.016;2023-03-13T05:44:13;97314.38;;;11.49;79.06
65718;BME280;52445;52.466;-1.016;2023-03-13T05:46:40;97312.66;;;11.48;79.32
65718;BME280;52445;52.466;-1.016;2023-03-13T05:49:06;97323.38;;;11.42;79.25
65718;BME280;52445;52.466;-1.016;2023-03-13T05:51:33;97301.31;;;11.33;78.99
65718;BME280;52445;52.466;-1.016;2023-03-13T05:54:00;97308.56;;;11.26;79.51
65718;BME280;52445;52.466;-1.016;2023-03-13T05:56:26;97309.66;;;11.22;79.29
65718;BME280;52445;52.466;-1.016;2023-03-13T05:58:53;97295.16;;;11.18;80.04
65718;BME280;52445;52.466;-1.016;2023-03-13T06:01:19;97275.59;;;11.12;78.87
65718;BME280;52445;52.466;-1.016;2023-03-13T06:03:46;97282.94;;;11.02;79.63
65718;BME280;52445;52.466;-1.016;2023-03-13T06:06:12;97277.88;;;11.01;79.11
65718;BME280;52445;52.466;-1.016;2023-03-13T06:08:39;97276.88;;;11.03;78.23
65718;BME280;52445;52.466;-1.016;2023-03-13T06:11:06;97280.34;;;11.02;78.31
65718;BME280;52445;52.466;-1.016;2023-03-13T06:13:32;97270.31;;;10.96;78.91
65718;BME280;52445;52.466;-1.016;2023-03-13T06:15:59;97270.31;;;10.96;78.81
65718;BME280;52445;52.466;-1.016;2023-03-13T06:18:26;97268.78;;;10.92;78.36
65718;BME280;52445;52.466;-1.016;2023-03-13T06:20:57;97244.41;;;10.96;77.98
65718;BME280;52445;52.466;-1.016;2023-03-13T06:23:24;97251.59;;;10.91;77.62
65718;BME280;52445;52.466;-1.016;2023-03-13T06:25:51;97242.91;;;10.92;76.55
65718;BME280;52445;52.466;-1.016;2023-03-13T06:28:18;97250.59;;;10.93;77.60
65718;BME280;52445;52.466;-1.016;2023-03-13T06:30:44;97251.59;;;10.91;76.63
65718;BME280;52445;52.466;-1.016;2023-03-13T06:33:11;97239.53;;;10.90;76.91
65718;BME280;52445;52.466;-1.016;2023-03-13T06:35:40;97232.53;;;10.92;77.18
65718;BME280;52445;52.466;-1.016;2023-03-13T06:38:21;97245.09;;;10.82;76.51
65718;BME280;52445;52.466;-1.016;2023-03-13T06:40:48;97231.03;;;10.88;76.67
65718;BME280;52445;52.466;-1.016;2023-03-13T06:43:14;97229.16;;;10.90;76.53
65718;BME280;52445;52.466;-1.016;2023-03-13T06:45:41;97222.63;;;10.83;75.88
65718;BME280;52445;52.466;-1.016;2023-03-13T06:48:07;97218.06;;;10.88;76.47
65718;BME280;52445;52.466;-1.016;2023-03-13T06:50:37;97235.28;;;10.89;75.51
65718;BME280;52445;52.466;-1.016;2023-03-13T06:53:04;97224.53;;;10.79;76.47
65718;BME280;52445;52.466;-1.016;2023-03-13T06:55:31;97231.03;;;10.88;76.00
65718;BME280;52445;52.466;-1.016;2023-03-13T06:57:57;97234.06;;;10.96;76.40
65718;BME280;52445;52.466;-1.016;2023-03-13T07:00:24;97243.63;;;10.94;75.38
65718;BME280;52445;52.466;-1.016;2023-03-13T07:02:51;97235.72;;;10.97;75.98
65718;BME280;52445;52.466;-1.016;2023-03-13T07:05:17;97227.75;;;11.02;75.23
65718;BME280;52445;52.466;-1.016;2023-03-13T07:07:44;97228.25;;;11.09;76.10
65718;BME280;52445;52.466;-1.016;2023-03-13T07:10:11;97223.22;;;11.05;75.99
65718;BME280;52445;52.466;-1.016;2023-03-13T07:12:37;97208.25;;;11.12;74.59
65718;BME280;52445;52.466;-1.016;2023-03-13T07:15:05;97229.47;;;11.19;74.45
65718;BME280;52445;52.466;-1.016;2023-03-13T07:17:31;97221.84;;;11.16;74.54
65718;BME280;52445;52.466;-1.016;2023-03-13T07:19:58;97219.13;;;11.19;74.61
65718;BME280;52445;52.466;-1.016;2023-03-13T07:22:25;97219.94;;;11.19;75.37
65718;BME280;52445;52.466;-1.016;2023-03-13T07:24:51;97218.50;;;11.14;74.99
65718;BME280;52445;52.466;-1.016;2023-03-13T07:27:18;97210.56;;;11.17;75.45
65718;BME280;52445;52.466;-1.016;2023-03-13T07:29:46;97198.53;;;11.16;74.73
65718;BME280;52445;52.466;-1.016;2023-03-13T07:32:22;97201.91;;;11.18;76.07
65718;BME280;52445;52.466;-1.016;2023-03-13T07:34:49;97195.31;;;11.28;75.90
65718;BME280;52445;52.466;-1.016;2023-03-13T07:37:16;97187.25;;;11.35;75.62
65718;BME280;52445;52.466;-1.016;2023-03-13T07:39:42;97170.47;;;11.42;74.54
65718;BME280;52445;52.466;-1.016;2023-03-13T07:42:10;97182.81;;;11.37;75.03
65718;BME280;52445;52.466;-1.016;2023-03-13T07:44:37;97185.38;;;11.37;75.54
65718;BME280;52445;52.466;-1.016;2023-03-13T07:47:04;97170.19;;;11.30;75.63
65718;BME280;52445;52.466;-1.016;2023-03-13T07:49:31;97176.81;;;11.18;75.81
65718;BME280;52445;52.466;-1.016;2023-03-13T07:51:59;97157.25;;;11.13;76.77
65718;BME280;52445;52.466;-1.016;2023-03-13T07:54:25;97163.63;;;11.23;76.50
65718;BME280;52445;52.466;-1.016;2023-03-13T07:56:52;97170.56;;;11.23;76.45
65718;BME280;52445;52.466;-1.016;2023-03-13T07:59:18;97169.75;;;11.22;76.93
65718;BME280;52445;52.466;-1.016;2023-03-13T08:01:45;97170.50;;;11.24;76.51
65718;BME280;52445;52.466;-1.016;2023-03-13T08:04:12;97162.28;;;11.16;76.76
65718;BME280;52445;52.466;-1.016;2023-03-13T08:06:40;97157.41;;;11.10;77.18
65718;BME280;52445;52.466;-1.016;2023-03-13T08:09:09;97153.59;;;11.17;76.71
65718;BME280;52445;52.466;-1.016;2023-03-13T08:11:38;97155.09;;;11.21;76.18
65718;BME280;52445;52.466;-1.016;2023-03-13T08:14:06;97169.41;;;11.28;75.98
65718;BME280;52445;52.466;-1.016;2023-03-13T08:16:33;97166.81;;;11.28;75.88
65718;BME280;52445;52.466;-1.016;2023-03-13T08:19:02;97171.25;;;11.26;76.28
65718;BME280;52445;52.466;-1.016;2023-03-13T08:21:33;97163.50;;;11.26;76.45
65718;BME280;52445;52.466;-1.016;2023-03-13T08:24:02;97153.94;;;11.27;76.51
65718;BME280;52445;52.466;-1.016;2023-03-13T08:26:32;97142.56;;;11.13;76.81
65718;BME280;52445;52.466;-1.016;2023-03-13T08:29:02;97143.66;;;11.25;76.50
65718;BME280;52445;52.466;-1.016;2023-03-13T08:31:32;97143.56;;;11.27;77.82
65718;BME280;52445;52.466;-1.016;2023-03-13T08:34:00;97148.91;;;11.24;77.93
65718;BME280;52445;52.466;-1.016;2023-03-13T08:36:32;97149.25;;;11.17;76.99
65718;BME280;52445;52.466;-1.016;2023-03-13T08:39:02;97127.84;;;11.14;77.04
65718;BME280;52445;52.466;-1.016;2023-03-13T08:41:32;97140.19;;;11.09;77.66
65718;BME280;52445;52.466;-1.016;2023-03-13T08:44:00;97136.69;;;11.10;78.35
65718;BME280;52445;52.466;-1.016;2023-03-13T08:46:29;97121.47;;;11.03;78.35
65718;BME280;52445;52.466;-1.016;2023-03-13T08:48:56;97132.34;;;11.10;78.30
65718;BME280;52445;52.466;-1.016;2023-03-13T08:51:27;97121.06;;;11.11;78.27
65718;BME280;52445;52.466;-1.016;2023-03-13T08:53:54;97125.44;;;11.11;77.85
65718;BME280;52445;52.466;-1.016;2023-03-13T08:56:24;97126.50;;;11.07;78.25
65718;BME280;52445;52.466;-1.016;2023-03-13T08:58:53;97138.38;;;11.11;77.34
65718;BME280;52445;52.466;-1.016;2023-03-13T09:01:22;97133.50;;;11.04;78.11
65718;BME280;52445;52.466;-1.016;2023-03-13T09:03:49;97149.03;;;11.04;77.71
65718;BME280;52445;52.466;-1.016;2023-03-13T09:06:16;97156.03;;;11.02;78.51
65718;BME280;52445;52.466;-1.016;2023-03-13T09:08:43;97168.25;;;11.00;78.19
65718;BME280;52445;52.466;-1.016;2023-03-13T09:11:13;97161.53;;;10.96;78.38
65718;BME280;52445;52.466;-1.016;2023-03-13T09:13:41;97152.34;;;10.90;79.41
65718;BME280;52445;52.466;-1.016;2023-03-13T09:16:11;97163.38;;;10.94;79.00
65718;BME280;52445;52.466;-1.016;2023-03-13T09:18:38;97155.00;;;10.89;78.98
65718;BME280;52445;52.466;-1.016;2023-03-13T09:21:08;97168.72;;;10.91;79.61
65718;BME280;52445;52.466;-1.016;2023-03-13T09:23:35;97152.63;;;10.84;79.87
65718;BME280;52445;52.466;-1.016;2023-03-13T09:26:02;97158.88;;;10.98;78.67
65718;BME280;52445;52.466;-1.016;2023-03-13T09:28:29;97152.41;;;11.07;79.21
65718;BME280;52445;52.466;-1.016;2023-03-13T09:31:05;97147.81;;;11.12;78.51
65718;BME280;52445;52.466;-1.016;2023-03-13T09:33:32;97141.72;;;11.13;78.32
65718;BME280;52445;52.466;-1.016;2023-03-13T09:35:58;97166.88;;;11.11;77.88
65718;BME280;52445;52.466;-1.016;2023-03-13T09:38:25;97159.69;;;11.16;77.51
65718;BME280;52445;52.466;-1.016;2023-03-13T09:40:53;97162.44;;;11.13;77.39
65718;BME280;52445;52.466;-1.016;2023-03-13T09:46:17;97155.44;;;11.15;77.64
65718;BME280;52445;52.466;-1.016;2023-03-13T09:48:48;97138.59;;;11.06;76.57
65718;BME280;52445;52.466;-1.016;2023-03-13T09:51:22;97154.34;;;11.19;75.97
65718;BME280;52445;52.466;-1.016;2023-03-13T09:56:37;97152.59;;;11.19;76.46
65718;BME280;52445;52.466;-1.016;2023-03-13T09:59:12;97166.16;;;11.25;76.53
65718;BME280;52445;52.466;-1.016;2023-03-13T10:01:43;97156.78;;;11.22;75.15
65718;BME280;52445;52.466;-1.016;2023-03-13T10:06:47;97176.94;;;11.33;75.16
65718;BME280;52445;52.466;-1.016;2023-03-13T10:09:17;97171.53;;;11.38;75.11
65718;BME280;52445;52.466;-1.016;2023-03-13T10:11:52;97163.16;;;11.32;75.30
65718;BME280;52445;52.466;-1.016;2023-03-13T10:14:42;97156.16;;;11.35;74.23
65718;BME280;52445;52.466;-1.016;2023-03-13T10:17:31;97158.75;;;11.35;74.93
65718;BME280;52445;52.466;-1.016;2023-03-13T10:20:07;97162.84;;;11.39;73.91
65718;BME280;52445;52.466;-1.016;2023-03-13T10:22:41;97172.88;;;11.45;74.29
65718;BME280;52445;52.466;-1.016;2023-03-13T10:25:31;97165.19;;;11.43;73.59
65718;BME280;52445;52.466;-1.016;2023-03-13T10:27:58;97175.91;;;11.53;73.29
65718;BME280;52445;52.466;-1.016;2023-03-13T10:35:43;97188.44;;;11.61;73.06
65718;BME280;52445;52.466;-1.016;2023-03-13T10:41:03;97184.44;;;11.55;72.48
65718;BME280;52445;52.466;-1.016;2023-03-13T10:43:32;97170.47;;;11.58;72.56
65718;BME280;52445;52.466;-1.016;2023-03-13T10:45:59;97180.91;;;11.56;73.06
65718;BME280;52445;52.466;-1.016;2023-03-13T10:48:29;97184.28;;;11.59;72.73
65718;BME280;52445;52.466;-1.016;2023-03-13T10:51:01;97171.63;;;11.52;72.25
65718;BME280;52445;52.466;-1.016;2023-03-13T10:56:12;97182.59;;;11.57;72.45
65718;BME280;52445;52.466;-1.016;2023-03-13T10:58:44;97185.13;;;11.59;73.28
65718;BME280;52445;52.466;-1.016;2023-03-13T11:01:29;97189.47;;;11.59;72.61
65718;BME280;52445;52.466;-1.016;2023-03-13T11:04:18;97181.69;;;11.59;72.28
65718;BME280;52445;52.466;-1.016;2023-03-13T11:06:57;97182.41;;;11.61;72.54
65718;BME280;52445;52.466;-1.016;2023-03-13T11:09:26;97165.69;;;11.66;73.05
65718;BME280;52445;52.466;-1.016;2023-03-13T11:11:55;97190.47;;;11.72;72.30
65718;BME280;52445;52.466;-1.016;2023-03-13T11:14:24;97185.13;;;11.75;72.63
65718;BME280;52445;52.466;-1.016;2023-03-13T11:16:54;97221.34;;;11.77;72.98
65718;BME280;52445;52.466;-1.016;2023-03-13T11:59:20;97183.22;;;12.74;67.87
65718;BME280;52445;52.466;-1.016;2023-03-13T12:01:59;97179.84;;;12.72;67.81
65718;BME280;52445;52.466;-1.016;2023-03-13T12:04:33;97192.06;;;12.55;66.38
65718;BME280;52445;52.466;-1.016;2023-03-13T12:07:10;97181.41;;;12.60;67.37
65718;BME280;52445;52.466;-1.016;2023-03-13T12:09:49;97207.47;;;12.58;67.47
65718;BME280;52445;52.466;-1.016;2023-03-13T12:17:38;97194.50;;;12.58;66.48
65718;BME280;52445;52.466;-1.016;2023-03-13T12:20:30;97192.63;;;12.60;66.97
65718;BME280;52445;52.466;-1.016;2023-03-13T12:25:55;97175.84;;;12.66;66.67
65718;BME280;52445;52.466;-1.016;2023-03-13T12:31:24;97181.59;;;12.71;64.92
65718;BME280;52445;52.466;-1.016;2023-03-13T12:36:33;97177.94;;;12.76;64.94
65718;BME280;52445;52.466;-1.016;2023-03-13T12:41:55;97166.94;;;13.01;66.48
65718;BME280;52445;52.466;-1.016;2023-03-13T12:44:26;97172.06;;;13.03;65.14
65718;BME280;52445;52.466;-1.016;2023-03-13T12:52:55;97161.03;;;13.28;64.47
65718;BME280;52445;52.466;-1.016;2023-03-13T12:58:21;97171.81;;;13.51;64.01
65718;BME280;52445;52.466;-1.016;2023-03-13T13:00:51;97158.25;;;13.60;63.26
65718;BME280;52445;52.466;-1.016;2023-03-13T13:06:08;97151.47;;;13.58;62.88
65718;BME280;52445;52.466;-1.016;2023-03-13T14:38:19;97041.72;;;13.80;58.69
65718;BME280;52445;52.466;-1.016;2023-03-13T14:40:47;97046.53;;;13.86;58.91
65718;BME280;52445;52.466;-1.016;2023-03-13T14:43:20;97043.53;;;13.93;59.59
65718;BME280;52445;52.466;-1.016;2023-03-13T14:45:49;97027.63;;;13.97;58.65
65718;BME280;52445;52.466;-1.016;2023-03-13T14:48:20;97040.91;;;13.93;58.07
65718;BME280;52445;52.466;-1.016;2023-03-13T14:50:50;97038.03;;;13.97;58.73
65718;BME280;52445;52.466;-1.016;2023-03-13T14:53:34;97045.53;;;14.02;59.06
65718;BME280;52445;52.466;-1.016;2023-03-13T14:56:10;97015.13;;;14.03;58.50
65718;BME280;52445;52.466;-1.016;2023-03-13T14:58:37;97034.69;;;13.95;58.29
65718;BME280;52445;52.466;-1.016;2023-03-13T15:01:25;97029.38;;;13.97;58.53
65718;BME280;52445;52.466;-1.016;2023-03-13T15:03:52;97023.47;;;13.95;58.04
65718;BME280;52445;52.466;-1.016;2023-03-13T15:06:22;97032.41;;;13.91;58.11
65718;BME280;52445;52.466;-1.016;2023-03-13T15:11:55;97039.84;;;13.82;58.61
65718;BME280;52445;52.466;-1.016;2023-03-13T15:14:43;97038.78;;;13.72;58.70
65718;BME280;52445;52.466;-1.016;2023-03-13T15:17:27;97007.47;;;13.73;58.91
65718;BME280;52445;52.466;-1.016;2023-03-13T15:19:57;97024.22;;;13.82;58.88
65718;BME280;52445;52.466;-1.016;2023-03-13T15:22:27;97017.19;;;13.84;59.38
65718;BME280;52445;52.466;-1.016;2023-03-13T15:25:22;97015.91;;;13.77;58.82
65718;BME280;52445;52.466;-1.016;2023-03-13T15:27:49;97026.06;;;13.67;59.39
65718;BME280;52445;52.466;-1.016;2023-03-13T15:30:18;97007.63;;;13.57;59.63
65718;BME280;52445;52.466;-1.016;2023-03-13T15:32:45;97016.88;;;13.61;59.30
65718;BME280;52445;52.466;-1.016;2023-03-13T15:37:58;97023.22;;;13.57;60.60
65718;BME280;52445;52.466;-1.016;2023-03-13T15:40:26;97013.00;;;13.54;60.90
65718;BME280;52445;52.466;-1.016;2023-03-13T15:42:53;97026.00;;;13.54;61.45
65718;BME280;52445;52.466;-1.016;2023-03-13T15:45:20;97028.06;;;13.49;60.63
65718;BME280;52445;52.466;-1.016;2023-03-13T15:47:47;97023.22;;;13.43;61.32
65718;BME280;52445;52.466;-1.016;2023-03-13T15:50:16;97018.97;;;13.42;62.63
65718;BME280;52445;52.466;-1.016;2023-03-13T15:52:43;97018.44;;;13.36;63.15
65718;BME280;52445;52.466;-1.016;2023-03-13T15:55:11;97023.16;;;13.30;62.56
65718;BME280;52445;52.466;-1.016;2023-03-13T15:57:43;97018.25;;;13.25;63.60
65718;BME280;52445;52.466;-1.016;2023-03-13T16:00:26;97018.91;;;13.14;64.12
65718;BME280;52445;52.466;-1.016;2023-03-13T16:02:52;97022.72;;;13.08;64.32
65718;BME280;52445;52.466;-1.016;2023-03-13T16:05:19;97022.38;;;13.00;63.90
65718;BME280;52445;52.466;-1.016;2023-03-13T16:07:46;97017.16;;;13.00;64.14
65718;BME280;52445;52.466;-1.016;2023-03-13T16:10:19;97008.66;;;12.98;64.82
65718;BME280;52445;52.466;-1.016;2023-03-13T16:12:50;97012.19;;;12.97;64.58
65718;BME280;52445;52.466;-1.016;2023-03-13T16:15:16;97005.31;;;12.96;65.53
65718;BME280;52445;52.466;-1.016;2023-03-13T16:17:43;97005.31;;;12.96;64.28
65718;BME280;52445;52.466;-1.016;2023-03-13T16:20:12;97007.00;;;12.97;65.03
65718;BME280;52445;52.466;-1.016;2023-03-13T16:22:41;96996.59;;;12.97;65.08